Yale, OK (74085)

6:41 AM CDT on September 29, 2016 (GMT -0500)
Western Heights | | Change Station

Elev 886 ft 36.12 °N, 96.71 °W | Updated 1 minute ago

Clear
Clear
50.0 °F
Feels Like 48 °F
N
6.0
Wind Variable Wind from North
Gusts 9.0 mph

Today
High -- | Low -- °F
--% Chance of Precip.
Yesterday
High -- | Low -- °F
Precip. -- in
Pressure 30.32 in
Visibility 10.0 miles
Clouds Clear
Windchill 48 °F
Dew Point 49 °F
Humidity 96%
Rainfall Not available.
Snow Depth Not available.
7:20 AM 7:12 PM
Waning Crescent, 2% visible
METAR KCUH 291135Z AUTO 01004KT 10SM CLR 09/08 A3032 RMK AO2 T00930081
Pressure 30.32 in
Visibility 10.0 miles
Clouds Clear
Windchill 48 °F
Dew Point 49 °F
Humidity 96%
Rainfall Not available.
Snow Depth Not available.
7:20 AM 7:12 PM
Waning Crescent, 2% visible
METAR KCUH 291135Z AUTO 01004KT 10SM CLR 09/08 A3032 RMK AO2 T00930081

10-Day Weather Forecast

Almanac

Astronomy

Sep. 29, 2016 Rise Set
Actual Time
Civil Twilight
Nautical Twilight
Astronomical Twilight
Moon
Length of Visible Light
Length of Day
Tomorrow will be .
, % of the Moon is Illuminated

Today's Extremes

State Highs State Lows

Community

WunderPhotos

Upload Photos

1,942,463 photos uploaded!

WunderBlog® & News

Nearby

Air Quality

  Air Quality AQ Index Pollutant
Not available.

Snow Depth

Station Depth Elevation

Earthquake Activity

City Distance Mag. Time & Date
Minimum magnitude displayed is 2.5.

Coastal Water Temperatures

Place Temperature

Stations

Nearby Weather Stations

Station Location Temp. Windchill Dew Point Humidity Wind Precip. Elev Updated Type
                   

Watches & Warnings

There are currently no watches in effect.